Time;durP1;ratioP1;P1;durP2;ratioP2;P2;SDS_P1;SDS_P2;PMS_P1;PMS_P2;Temp;Humidity;BMP_temperature;BMP_pressure;BME280_temperature;BME280_humidity;BME280_pressure;Samples;Min_cycle;Max_cycle;Signal;HPM_P1;HPM_P2
2024/01/26 00:01:22;;;;;;;;;;;;;;;;;;5084389;28;19920;-67
2024/01/26 00:03:48;;;;;;;;;;;;;;;;;;5087718;28;19920;-67
2024/01/26 00:06:14;;;;;;;;;;;;;;;;;;5089738;28;19990;-67
2024/01/26 00:08:40;;;;;;;;;;;;;;;;;;5089475;28;20297;-67
2024/01/26 00:11:05;;;;;;;;;;;;;;;;;;5087396;28;19935;-67
2024/01/26 00:13:31;;;;;;;;;;;;;;;;;;5087408;28;19927;-67
2024/01/26 00:15:57;;;;;;;;;;;;;;;;;;5083589;28;19927;-67
2024/01/26 00:18:23;;;;;;;;;;;;;;;;;;5085419;28;19930;-67
2024/01/26 00:20:49;;;;;;;;;;;;;;;;;;5078173;28;20007;-67
2024/01/26 00:23:15;;;;;;;;;;;;;;;;;;5084537;28;19920;-67
2024/01/26 00:25:41;;;;;;;;;;;;;;;;;;5091120;28;20422;-66
2024/01/26 00:28:07;;;;;;;;;;;;;;;;;;5081612;28;19998;-66
2024/01/26 00:30:33;;;;;;;;;;;;;;;;;;5085454;28;20018;-66
2024/01/26 00:32:59;;;;;;;;;;;;;;;;;;5082743;28;20015;-66
2024/01/26 00:35:26;;;;;;;;;;;;;;;;;;5091087;28;19923;-66
2024/01/26 00:37:52;;;;;;;;;;;;;;;;;;5084790;28;20015;-66
2024/01/26 00:40:18;;;;;;;;;;;;;;;;;;5092448;28;20051;-67
2024/01/26 00:42:44;;;;;;;;;;;;;;;;;;5092783;28;20630;-66
2024/01/26 00:45:10;;;;;;;;;;;;;;;;;;5087032;28;19920;-66
2024/01/26 00:47:36;;;;;;;;;;;;;;;;;;5088621;28;19920;-66
2024/01/26 00:50:02;;;;;;;;;;;;;;;;;;5085515;28;19924;-66
2024/01/26 00:52:28;;;;;;;;;;;;;;;;;;5092879;28;19931;-66
2024/01/26 00:54:53;;;;;;;;;;;;;;;;;;5089210;28;19946;-66
2024/01/26 00:57:19;;;;;;;;;;;;;;;;;;5092555;28;19924;-67
2024/01/26 00:59:45;;;;;;;;;;;;;;;;;;5070469;28;20403;-67
2024/01/26 01:02:11;;;;;;;;;;;;;;;;;;5091592;28;19968;-67
2024/01/26 01:04:37;;;;;;;;;;;;;;;;;;5088535;28;19955;-65
2024/01/26 01:07:03;;;;;;;;;;;;;;;;;;5092069;28;19999;-66
2024/01/26 01:09:29;;;;;;;;;;;;;;;;;;5090241;28;20007;-66
2024/01/26 01:11:55;;;;;;;;;;;;;;;;;;5075893;28;19958;-66
2024/01/26 01:14:21;;;;;;;;;;;;;;;;;;5088108;28;19945;-66
2024/01/26 01:16:47;;;;;;;;;;;;;;;;;;5078363;28;20290;-66
2024/01/26 01:19:13;;;;;;;;;;;;;;;;;;5099948;28;19924;-66
2024/01/26 01:21:40;;;;;;;;;;;;;;;;;;5087597;28;19965;-66
2024/01/26 01:24:06;;;;;;;;;;;;;;;;;;5086970;28;20261;-66
2024/01/26 01:26:32;;;;;;;;;;;;;;;;;;5086337;28;19938;-65
2024/01/26 01:28:58;;;;;;;;;;;;;;;;;;5085382;28;20449;-66
2024/01/26 01:31:24;;;;;;;;;;;;;;;;;;5087959;28;20077;-65
2024/01/26 01:33:50;;;;;;;;;;;;;;;;;;5088908;28;20042;-66
2024/01/26 01:36:16;;;;;;;;;;;;;;;;;;5091718;28;19928;-66
2024/01/26 01:38:41;;;;;;;;;;;;;;;;;;5089590;28;19932;-66
2024/01/26 01:41:07;;;;;;;;;;;;;;;;;;5089075;28;19920;-66
2024/01/26 01:43:33;;;;;;;;;;;;;;;;;;5086046;28;19924;-67
2024/01/26 01:45:59;;;;;;;;;;;;;;;;;;5091488;28;20372;-65
2024/01/26 01:48:25;;;;;;;;;;;;;;;;;;5089445;28;19931;-66
2024/01/26 01:50:51;;;;;;;;;;;;;;;;;;5086031;28;19963;-66
2024/01/26 01:53:17;;;;;;;;;;;;;;;;;;5089771;28;20084;-65
2024/01/26 01:55:43;;;;;;;;;;;;;;;;;;5087034;28;19970;-66
2024/01/26 01:58:09;;;;;;;;;;;;;;;;;;5084383;28;19924;-66
2024/01/26 02:00:35;;;;;;;;;;;;;;;;;;5089559;28;21762;-66
2024/01/26 02:03:01;;;;;;;;;;;;;;;;;;5085491;28;20007;-65
2024/01/26 02:05:27;;;;;;;;;;;;;;;;;;5090523;28;19977;-65
2024/01/26 02:07:53;;;;;;;;;;;;;;;;;;5090809;28;19920;-65
2024/01/26 02:10:19;;;;;;;;;;;;;;;;;;5087358;28;19928;-65
2024/01/26 02:12:45;;;;;;;;;;;;;;;;;;5081150;28;20315;-65
2024/01/26 02:15:11;;;;;;;;;;;;;;;;;;5086411;28;19920;-65
2024/01/26 02:17:37;;;;;;;;;;;;;;;;;;5089680;28;19947;-67
2024/01/26 02:20:06;;;;;;;;;;;;;;;;;;5090888;28;19928;-66
2024/01/26 02:22:32;;;;;;;;;;;;;;;;;;5083504;28;19931;-66
2024/01/26 02:24:57;;;;;;;;;;;;;;;;;;5085296;28;19924;-66
2024/01/26 02:27:23;;;;;;;;;;;;;;;;;;5086723;28;19920;-66
2024/01/26 02:29:49;;;;;;;;;;;;;;;;;;5084992;28;20674;-66
2024/01/26 02:32:15;;;;;;;;;;;;;;;;;;5091077;28;19924;-66
2024/01/26 02:34:41;;;;;;;;;;;;;;;;;;5083488;28;19973;-66
2024/01/26 02:37:10;;;;;;;;;;;;;;;;;;5085857;28;20428;-67
2024/01/26 02:39:36;;;;;;;;;;;;;;;;;;5077935;28;19927;-66
2024/01/26 02:42:02;;;;;;;;;;;;;;;;;;5080528;28;19924;-66
2024/01/26 02:44:28;;;;;;;;;;;;;;;;;;5085162;28;20429;-66
2024/01/26 02:46:54;;;;;;;;;;;;;;;;;;5080912;28;20007;-66
2024/01/26 02:49:19;;;;;;;;;;;;;;;;;;5089556;28;19931;-66
2024/01/26 02:51:45;;;;;;;;;;;;;;;;;;5089235;28;19966;-65
2024/01/26 02:54:12;;;;;;;;;;;;;;;;;;5082535;28;19920;-66
2024/01/26 02:56:37;;;;;;;;;;;;;;;;;;5085390;28;19928;-65
2024/01/26 02:59:03;;;;;;;;;;;;;;;;;;5088948;28;19928;-65
2024/01/26 03:01:29;;;;;;;;;;;;;;;;;;5085961;28;19924;-66
2024/01/26 03:03:55;;;;;;;;;;;;;;;;;;5085447;28;19920;-66
2024/01/26 03:06:21;;;;;;;;;;;;;;;;;;5080341;28;19967;-66
2024/01/26 03:08:47;;;;;;;;;;;;;;;;;;5085982;28;19963;-67
2024/01/26 03:11:13;;;;;;;;;;;;;;;;;;5085572;28;19924;-67
2024/01/26 03:13:39;;;;;;;;;;;;;;;;;;5087622;28;19921;-64
2024/01/26 03:16:05;;;;;;;;;;;;;;;;;;5084288;28;20295;-65
2024/01/26 03:18:31;;;;;;;;;;;;;;;;;;5088576;28;20385;-65
2024/01/26 03:20:57;;;;;;;;;;;;;;;;;;5089360;28;20007;-65
2024/01/26 03:23:23;;;;;;;;;;;;;;;;;;5088253;28;20006;-66
2024/01/26 03:25:49;;;;;;;;;;;;;;;;;;5090370;28;20018;-66
2024/01/26 03:28:15;;;;;;;;;;;;;;;;;;5085768;28;20440;-66
2024/01/26 03:30:43;;;;;;;;;;;;;;;;;;5090141;28;19934;-66
2024/01/26 03:33:09;;;;;;;;;;;;;;;;;;5085671;28;19920;-66
2024/01/26 03:35:35;;;;;;;;;;;;;;;;;;5086704;28;19920;-66
2024/01/26 03:38:01;;;;;;;;;;;;;;;;;;5084941;28;19921;-66
2024/01/26 03:40:27;;;;;;;;;;;;;;;;;;5088127;28;19924;-67
2024/01/26 03:42:53;;;;;;;;;;;;;;;;;;5090390;28;19920;-66
2024/01/26 03:45:19;;;;;;;;;;;;;;;;;;5078566;28;19965;-67
2024/01/26 03:47:45;;;;;;;;;;;;;;;;;;5079591;28;20346;-66
2024/01/26 03:50:11;;;;;;;;;;;;;;;;;;5091010;28;19936;-65
2024/01/26 03:52:37;;;;;;;;;;;;;;;;;;5088266;28;19924;-65
2024/01/26 03:55:06;;;;;;;;;;;;;;;;;;5090738;28;19944;-65
2024/01/26 03:57:32;;;;;;;;;;;;;;;;;;5083822;28;19974;-65
2024/01/26 03:59:58;;;;;;;;;;;;;;;;;;5085717;28;19928;-65
2024/01/26 04:02:24;;;;;;;;;;;;;;;;;;5094400;28;19984;-65
2024/01/26 04:04:50;;;;;;;;;;;;;;;;;;5092929;28;20067;-65
2024/01/26 04:07:16;;;;;;;;;;;;;;;;;;5089257;28;19923;-65
2024/01/26 04:09:42;;;;;;;;;;;;;;;;;;5092955;28;20320;-66
2024/01/26 04:12:08;;;;;;;;;;;;;;;;;;5093208;28;19927;-65
2024/01/26 04:14:34;;;;;;;;;;;;;;;;;;5089405;28;19924;-65
2024/01/26 04:16:59;;;;;;;;;;;;;;;;;;5083693;28;20296;-65
2024/01/26 04:19:25;;;;;;;;;;;;;;;;;;5091730;28;20015;-66
2024/01/26 04:21:52;;;;;;;;;;;;;;;;;;5094312;28;19920;-66
2024/01/26 04:24:17;;;;;;;;;;;;;;;;;;5088558;28;19924;-66
2024/01/26 04:26:43;;;;;;;;;;;;;;;;;;5091423;28;19938;-66
2024/01/26 04:29:09;;;;;;;;;;;;;;;;;;5086291;28;19924;-66
2024/01/26 04:31:35;;;;;;;;;;;;;;;;;;5089493;28;19926;-66
2024/01/26 04:34:01;;;;;;;;;;;;;;;;;;5091354;28;19930;-66
2024/01/26 04:36:27;;;;;;;;;;;;;;;;;;5088872;28;20367;-66
2024/01/26 04:38:53;;;;;;;;;;;;;;;;;;5088940;28;19970;-66
2024/01/26 04:41:19;;;;;;;;;;;;;;;;;;5093428;28;20011;-66
2024/01/26 04:43:45;;;;;;;;;;;;;;;;;;5092179;28;20494;-66
2024/01/26 04:46:11;;;;;;;;;;;;;;;;;;5085226;28;19920;-66
2024/01/26 04:48:37;;;;;;;;;;;;;;;;;;5090197;28;19924;-65
2024/01/26 04:51:03;;;;;;;;;;;;;;;;;;5089612;28;19995;-65
2024/01/26 04:53:29;;;;;;;;;;;;;;;;;;5093231;28;20016;-65
2024/01/26 04:55:55;;;;;;;;;;;;;;;;;;5093877;28;20011;-66
2024/01/26 04:58:20;;;;;;;;;;;;;;;;;;5087388;28;20425;-65
2024/01/26 05:00:46;;;;;;;;;;;;;;;;;;5091521;28;19954;-65
2024/01/26 05:03:12;;;;;;;;;;;;;;;;;;5087010;28;19947;-65
2024/01/26 05:05:38;;;;;;;;;;;;;;;;;;5089660;28;19928;-66
2024/01/26 05:08:04;;;;;;;;;;;;;;;;;;5090492;28;19927;-66
2024/01/26 05:10:30;;;;;;;;;;;;;;;;;;5088450;28;19957;-66
2024/01/26 05:12:56;;;;;;;;;;;;;;;;;;5091968;28;19967;-66
2024/01/26 05:15:22;;;;;;;;;;;;;;;;;;5084068;28;20583;-66
2024/01/26 05:17:48;;;;;;;;;;;;;;;;;;5089194;28;19920;-66
2024/01/26 05:20:14;;;;;;;;;;;;;;;;;;5088803;28;19959;-66
2024/01/26 05:22:40;;;;;;;;;;;;;;;;;;5089793;28;19959;-66
2024/01/26 05:25:06;;;;;;;;;;;;;;;;;;5087177;28;19955;-65
2024/01/26 05:27:32;;;;;;;;;;;;;;;;;;5089392;28;19962;-65
2024/01/26 05:29:58;;;;;;;;;;;;;;;;;;5081281;28;20627;-65
2024/01/26 05:32:24;;;;;;;;;;;;;;;;;;5086778;28;19924;-65
2024/01/26 05:34:50;;;;;;;;;;;;;;;;;;5089653;28;19974;-65
2024/01/26 05:37:16;;;;;;;;;;;;;;;;;;5091403;28;20430;-65
2024/01/26 05:39:42;;;;;;;;;;;;;;;;;;5085957;28;19924;-65
2024/01/26 05:42:08;;;;;;;;;;;;;;;;;;5088655;28;19924;-66
2024/01/26 05:44:34;;;;;;;;;;;;;;;;;;5087080;28;19924;-66
2024/01/26 05:47:00;;;;;;;;;;;;;;;;;;5091519;28;19931;-66
2024/01/26 05:49:26;;;;;;;;;;;;;;;;;;5079913;28;20362;-66
2024/01/26 05:51:52;;;;;;;;;;;;;;;;;;5086856;28;19946;-67
2024/01/26 05:54:18;;;;;;;;;;;;;;;;;;5091589;28;19919;-66
2024/01/26 05:56:44;;;;;;;;;;;;;;;;;;5089712;28;19932;-66
2024/01/26 05:59:10;;;;;;;;;;;;;;;;;;5088104;28;20350;-66
2024/01/26 06:01:37;;;;;;;;;;;;;;;;;;5083126;28;19924;-66
2024/01/26 06:04:03;;;;;;;;;;;;;;;;;;5090882;28;20460;-66
2024/01/26 06:06:29;;;;;;;;;;;;;;;;;;5089880;28;19974;-66
2024/01/26 06:08:55;;;;;;;;;;;;;;;;;;5092297;28;19928;-66
2024/01/26 06:11:21;;;;;;;;;;;;;;;;;;5095827;22;19928;-69
2024/01/26 06:13:47;;;;;;;;;;;;;;;;;;5073754;28;20430;-70
2024/01/26 06:16:13;;;;;;;;;;;;;;;;;;5064795;28;19928;-70
2024/01/26 06:18:39;;;;;;;;;;;;;;;;;;5073379;28;19979;-70
2024/01/26 06:21:05;;;;;;;;;;;;;;;;;;5070740;28;20322;-70
2024/01/26 06:23:31;;;;;;;;;;;;;;;;;;5074671;28;20003;-70
2024/01/26 06:25:57;;;;;;;;;;;;;;;;;;5079241;28;19996;-70
2024/01/26 06:28:23;;;;;;;;;;;;;;;;;;5079615;28;20022;-70
2024/01/26 06:30:49;;;;;;;;;;;;;;;;;;5069300;28;20349;-68
2024/01/26 06:33:15;;;;;;;;;;;;;;;;;;5061407;28;19928;-69
2024/01/26 06:35:42;;;;;;;;;;;;;;;;;;5073104;28;20450;-69
2024/01/26 06:38:08;;;;;;;;;;;;;;;;;;5073356;28;19927;-69
2024/01/26 06:40:34;;;;;;;;;;;;;;;;;;5073420;28;19928;-69
2024/01/26 06:43:06;;;;;;;;;;;;;;;;;;5082551;28;19928;-70
2024/01/26 06:45:32;;;;;;;;;;;;;;;;;;5074949;28;19924;-67
2024/01/26 06:47:58;;;;;;;;;;;;;;;;;;5068360;28;19948;-65
2024/01/26 06:50:24;;;;;;;;;;;;;;;;;;5086698;28;20347;-66
2024/01/26 06:52:52;;;;;;;;;;;;;;;;;;5084093;28;20232;-65
2024/01/26 06:55:18;;;;;;;;;;;;;;;;;;5081700;28;20392;-65
2024/01/26 06:57:44;;;;;;;;;;;;;;;;;;5088164;28;19969;-65
2024/01/26 07:00:10;;;;;;;;;;;;;;;;;;5084805;28;19920;-65
2024/01/26 07:02:36;;;;;;;;;;;;;;;;;;5067275;28;20034;-65
2024/01/26 07:05:02;;;;;;;;;;;;;;;;;;5071950;28;20335;-65
2024/01/26 07:07:28;;;;;;;;;;;;;;;;;;5081697;28;19924;-65
2024/01/26 07:09:54;;;;;;;;;;;;;;;;;;5071587;28;20461;-66
2024/01/26 07:12:20;;;;;;;;;;;;;;;;;;5079283;28;19966;-66
2024/01/26 07:14:46;;;;;;;;;;;;;;;;;;5070598;28;19951;-65
2024/01/26 07:17:12;;;;;;;;;;;;;;;;;;5079628;28;19920;-65
2024/01/26 07:19:38;;;;;;;;;;;;;;;;;;5073320;28;19920;-65
2024/01/26 07:22:05;;;;;;;;;;;;;;;;;;5081032;28;19977;-65
2024/01/26 07:24:30;;;;;;;;;;;;;;;;;;5075670;28;19968;-65
2024/01/26 07:26:56;;;;;;;;;;;;;;;;;;5079902;28;19963;-65
2024/01/26 07:29:22;;;;;;;;;;;;;;;;;;5072162;28;19928;-66
2024/01/26 07:31:49;;;;;;;;;;;;;;;;;;5066895;28;19943;-66
2024/01/26 07:34:15;;;;;;;;;;;;;;;;;;5079306;28;19978;-66
2024/01/26 07:36:41;;;;;;;;;;;;;;;;;;5082466;28;19924;-66
2024/01/26 07:39:07;;;;;;;;;;;;;;;;;;5080434;28;20568;-66
2024/01/26 07:41:33;;;;;;;;;;;;;;;;;;5066047;28;19928;-66
2024/01/26 07:44:00;;;;;;;;;;;;;;;;;;5075376;28;19928;-66
2024/01/26 07:46:25;;;;;;;;;;;;;;;;;;5071094;28;20252;-67
2024/01/26 07:48:51;;;;;;;;;;;;;;;;;;5075057;28;20299;-66
2024/01/26 07:51:17;;;;;;;;;;;;;;;;;;5074975;28;19924;-67
2024/01/26 07:53:43;;;;;;;;;;;;;;;;;;5073543;28;19927;-65
2024/01/26 07:56:09;;;;;;;;;;;;;;;;;;5072771;28;19999;-66
2024/01/26 07:58:35;;;;;;;;;;;;;;;;;;5074936;28;19940;-66
2024/01/26 08:01:01;;;;;;;;;;;;;;;;;;5069911;28;19924;-66
2024/01/26 08:03:28;;;;;;;;;;;;;;;;;;5070568;28;19924;-67
2024/01/26 08:05:54;;;;;;;;;;;;;;;;;;5071270;28;19920;-66
2024/01/26 08:08:20;;;;;;;;;;;;;;;;;;5069203;28;19928;-66
2024/01/26 08:10:46;;;;;;;;;;;;;;;;;;5078292;28;19978;-66
2024/01/26 08:13:12;;;;;;;;;;;;;;;;;;5072769;28;19959;-66
2024/01/26 08:15:37;;;;;;;;;;;;;;;;;;5067913;28;19983;-66
2024/01/26 08:18:03;;;;;;;;;;;;;;;;;;5072698;28;20301;-66
2024/01/26 08:20:29;;;;;;;;;;;;;;;;;;5083709;28;19920;-67
2024/01/26 08:22:56;;;;;;;;;;;;;;;;;;5076083;28;19920;-65
2024/01/26 08:25:21;;;;;;;;;;;;;;;;;;5102186;28;19935;-66
2024/01/26 08:27:47;;;;;;;;;;;;;;;;;;5082245;28;19983;-66
2024/01/26 08:30:13;;;;;;;;;;;;;;;;;;5074027;28;20412;-67
2024/01/26 08:32:39;;;;;;;;;;;;;;;;;;5064286;28;19928;-65
2024/01/26 08:35:09;;;;;;;;;;;;;;;;;;5076507;28;19928;-65
2024/01/26 08:37:35;;;;;;;;;;;;;;;;;;5074796;28;19946;-66
2024/01/26 08:40:01;;;;;;;;;;;;;;;;;;5070313;28;19921;-64
2024/01/26 08:42:27;;;;;;;;;;;;;;;;;;5069170;28;19978;-65
2024/01/26 08:44:53;;;;;;;;;;;;;;;;;;5076872;28;20274;-65
2024/01/26 08:47:19;;;;;;;;;;;;;;;;;;5057163;28;19920;-65
2024/01/26 08:49:44;;;;;;;;;;;;;;;;;;5070683;28;20304;-65
2024/01/26 08:52:10;;;;;;;;;;;;;;;;;;5074179;28;19930;-65
2024/01/26 08:54:36;;;;;;;;;;;;;;;;;;5056879;28;19924;-66
2024/01/26 08:57:02;;;;;;;;;;;;;;;;;;5082560;28;19963;-65
2024/01/26 08:59:28;;;;;;;;;;;;;;;;;;5072052;28;19999;-66
2024/01/26 09:01:54;;;;;;;;;;;;;;;;;;5074802;28;19981;-65
2024/01/26 09:04:20;;;;;;;;;;;;;;;;;;5074865;28;19924;-65
2024/01/26 09:06:46;;;;;;;;;;;;;;;;;;5074829;28;20475;-65
2024/01/26 09:09:13;;;;;;;;;;;;;;;;;;5072801;28;19933;-65
2024/01/26 09:11:39;;;;;;;;;;;;;;;;;;5073194;28;19939;-65
2024/01/26 09:14:05;;;;;;;;;;;;;;;;;;5071200;28;19920;-66
2024/01/26 09:16:31;;;;;;;;;;;;;;;;;;5078082;28;19924;-66
2024/01/26 09:18:57;;;;;;;;;;;;;;;;;;5079797;28;20003;-66
2024/01/26 09:21:23;;;;;;;;;;;;;;;;;;5082108;28;20051;-66
2024/01/26 09:23:49;;;;;;;;;;;;;;;;;;5070388;28;19924;-66
2024/01/26 09:26:15;;;;;;;;;;;;;;;;;;5067247;28;19930;-67
2024/01/26 09:28:41;;;;;;;;;;;;;;;;;;5064185;28;20071;-66
2024/01/26 09:31:07;;;;;;;;;;;;;;;;;;5070944;28;19927;-66
2024/01/26 09:33:33;;;;;;;;;;;;;;;;;;5072231;28;20476;-65
2024/01/26 09:35:59;;;;;;;;;;;;;;;;;;5073618;28;19924;-66
2024/01/26 09:38:24;;;;;;;;;;;;;;;;;;5077336;28;20289;-66
2024/01/26 09:40:50;;;;;;;;;;;;;;;;;;5073406;28;19928;-65
2024/01/26 09:43:16;;;;;;;;;;;;;;;;;;5079278;28;19920;-66
2024/01/26 09:45:42;;;;;;;;;;;;;;;;;;5068662;28;19925;-66
2024/01/26 09:48:08;;;;;;;;;;;;;;;;;;5066696;28;19921;-66
2024/01/26 09:50:34;;;;;;;;;;;;;;;;;;5076751;28;20270;-66
2024/01/26 09:53:00;;;;;;;;;;;;;;;;;;5075862;28;19963;-66
2024/01/26 09:55:26;;;;;;;;;;;;;;;;;;5074692;28;19960;-66
2024/01/26 09:57:53;;;;;;;;;;;;;;;;;;5079828;28;20545;-66
2024/01/26 10:00:19;;;;;;;;;;;;;;;;;;5068963;28;20028;-66
2024/01/26 10:02:45;;;;;;;;;;;;;;;;;;5063213;28;20026;-66
2024/01/26 10:05:11;;;;;;;;;;;;;;;;;;5064971;28;19927;-66
2024/01/26 10:07:37;;;;;;;;;;;;;;;;;;5062685;28;19924;-66
2024/01/26 10:10:03;;;;;;;;;;;;;;;;;;5072091;28;20315;-65
2024/01/26 10:12:30;;;;;;;;;;;;;;;;;;5070508;28;19924;-65
2024/01/26 10:14:56;;;;;;;;;;;;;;;;;;5076479;28;20010;-64
2024/01/26 10:17:22;;;;;;;;;;;;;;;;;;5071366;28;19920;-65
2024/01/26 10:19:48;;;;;;;;;;;;;;;;;;5072800;28;20433;-65
2024/01/26 10:22:14;;;;;;;;;;;;;;;;;;5066048;28;20043;-65
2024/01/26 10:24:40;;;;;;;;;;;;;;;;;;5069553;28;19924;-65
2024/01/26 10:27:06;;;;;;;;;;;;;;;;;;5068235;28;19932;-65
2024/01/26 10:29:32;;;;;;;;;;;;;;;;;;5068778;28;19936;-66
2024/01/26 10:31:58;;;;;;;;;;;;;;;;;;5077205;28;20550;-66
2024/01/26 10:34:24;;;;;;;;;;;;;;;;;;5062294;28;19935;-66
2024/01/26 10:36:50;;;;;;;;;;;;;;;;;;5070345;28;19920;-66
2024/01/26 10:39:16;;;;;;;;;;;;;;;;;;5068555;28;19928;-66
2024/01/26 10:41:42;;;;;;;;;;;;;;;;;;5070875;28;19931;-66
2024/01/26 10:44:09;;;;;;;;;;;;;;;;;;5068291;28;19921;-66
2024/01/26 10:46:37;;;;;;;;;;;;;;;;;;5064802;28;19924;-66
2024/01/26 10:49:03;;;;;;;;;;;;;;;;;;5067788;28;19929;-66
2024/01/26 10:51:29;;;;;;;;;;;;;;;;;;5065049;28;19978;-66
2024/01/26 10:53:55;;;;;;;;;;;;;;;;;;5069107;28;19920;-66
2024/01/26 10:56:21;;;;;;;;;;;;;;;;;;5071506;28;20397;-66
2024/01/26 10:58:46;;;;;;;;;;;;;;;;;;5070755;28;19936;-66
2024/01/26 11:01:12;;;;;;;;;;;;;;;;;;5066176;28;19925;-66
2024/01/26 11:03:38;;;;;;;;;;;;;;;;;;5071153;28;19920;-67
2024/01/26 11:06:08;;;;;;;;;;;;;;;;;;5063685;28;20366;-65
2024/01/26 11:08:34;;;;;;;;;;;;;;;;;;5063685;28;19928;-65
2024/01/26 11:10:59;;;;;;;;;;;;;;;;;;5065255;28;20358;-64
2024/01/26 11:13:25;;;;;;;;;;;;;;;;;;5067759;28;20587;-65
2024/01/26 11:15:51;;;;;;;;;;;;;;;;;;5074417;28;20397;-65
2024/01/26 11:18:17;;;;;;;;;;;;;;;;;;5074634;28;19942;-65
2024/01/26 11:20:46;;;;;;;;;;;;;;;;;;5059051;28;20285;-65
2024/01/26 11:23:14;;;;;;;;;;;;;;;;;;5068853;28;20288;-65
2024/01/26 11:25:39;;;;;;;;;;;;;;;;;;5072195;28;19920;-65
2024/01/26 11:28:05;;;;;;;;;;;;;;;;;;5064680;28;20265;-66
2024/01/26 11:30:31;;;;;;;;;;;;;;;;;;5074928;28;20269;-66
2024/01/26 11:32:57;;;;;;;;;;;;;;;;;;5070405;28;20019;-66
2024/01/26 11:35:23;;;;;;;;;;;;;;;;;;5069239;28;19927;-66
2024/01/26 11:37:49;;;;;;;;;;;;;;;;;;5068753;28;19951;-66
2024/01/26 11:40:15;;;;;;;;;;;;;;;;;;5075875;28;19982;-65
2024/01/26 11:42:41;;;;;;;;;;;;;;;;;;5072204;28;19928;-65
2024/01/26 11:45:13;;;;;;;;;;;;;;;;;;5069879;28;19963;-65
2024/01/26 11:47:39;;;;;;;;;;;;;;;;;;5092274;28;19995;-65
2024/01/26 11:50:05;;;;;;;;;;;;;;;;;;5074316;28;20031;-65
2024/01/26 11:52:32;;;;;;;;;;;;;;;;;;5067513;28;20263;-66
2024/01/26 11:54:58;;;;;;;;;;;;;;;;;;5067120;28;19943;-64
2024/01/26 11:57:24;;;;;;;;;;;;;;;;;;5072335;28;20370;-65
2024/01/26 11:59:50;;;;;;;;;;;;;;;;;;5083153;28;19924;-65
2024/01/26 12:02:16;;;;;;;;;;;;;;;;;;5086790;28;19931;-64
2024/01/26 12:04:42;;;;;;;;;;;;;;;;;;5066553;28;19920;-64
2024/01/26 12:07:08;;;;;;;;;;;;;;;;;;5069523;28;19931;-65
2024/01/26 12:09:34;;;;;;;;;;;;;;;;;;5068562;28;19931;-64
2024/01/26 12:12:00;;;;;;;;;;;;;;;;;;5085140;28;19931;-64
2024/01/26 12:14:27;;;;;;;;;;;;;;;;;;5062060;28;19925;-64
2024/01/26 12:16:52;;;;;;;;;;;;;;;;;;5085043;28;19924;-65
2024/01/26 12:19:18;;;;;;;;;;;;;;;;;;5075582;28;19928;-65
2024/01/26 12:21:44;;;;;;;;;;;;;;;;;;5069347;28;19984;-65
2024/01/26 12:24:11;;;;;;;;;;;;;;;;;;5063528;28;19993;-66
2024/01/26 12:26:37;;;;;;;;;;;;;;;;;;5060732;28;19928;-65
2024/01/26 12:29:03;;;;;;;;;;;;;;;;;;5072934;28;19983;-65
2024/01/26 12:31:31;;;;;;;;;;;;;;;;;;5068362;28;20011;-66
2024/01/26 12:33:57;;;;;;;;;;;;;;;;;;5059617;28;19928;-66
2024/01/26 12:36:23;;;;;;;;;;;;;;;;;;5070488;28;19932;-66
2024/01/26 12:38:49;;;;;;;;;;;;;;;;;;5069773;28;20416;-66
2024/01/26 12:41:16;;;;;;;;;;;;;;;;;;5075030;28;20336;-66
2024/01/26 12:43:42;;;;;;;;;;;;;;;;;;5083809;28;19919;-66
2024/01/26 12:46:10;;;;;;;;;;;;;;;;;;5088737;28;19924;-66
2024/01/26 12:48:36;;;;;;;;;;;;;;;;;;5086464;28;19979;-67
2024/01/26 12:51:02;;;;;;;;;;;;;;;;;;5083399;28;19970;-66
2024/01/26 12:53:28;;;;;;;;;;;;;;;;;;5076432;28;19982;-66
2024/01/26 12:55:53;;;;;;;;;;;;;;;;;;5073732;28;19928;-66
2024/01/26 12:58:20;;;;;;;;;;;;;;;;;;5072552;28;20297;-66
2024/01/26 13:00:47;;;;;;;;;;;;;;;;;;5075529;28;19928;-66
2024/01/26 13:03:15;;;;;;;;;;;;;;;;;;5083380;28;19923;-66
2024/01/26 13:05:41;;;;;;;;;;;;;;;;;;5080011;28;20510;-66
2024/01/26 13:08:07;;;;;;;;;;;;;;;;;;5086459;28;19962;-67
2024/01/26 13:10:33;;;;;;;;;;;;;;;;;;5078895;28;20006;-67
2024/01/26 13:12:59;;;;;;;;;;;;;;;;;;5062321;28;19924;-67
2024/01/26 13:15:25;;;;;;;;;;;;;;;;;;5071894;28;19924;-66
2024/01/26 13:17:52;;;;;;;;;;;;;;;;;;5067981;28;20302;-65
2024/01/26 13:20:19;;;;;;;;;;;;;;;;;;5073146;28;20400;-65
2024/01/26 13:22:47;;;;;;;;;;;;;;;;;;5072585;28;19965;-66
2024/01/26 13:25:14;;;;;;;;;;;;;;;;;;5072599;28;20451;-65
2024/01/26 13:27:40;;;;;;;;;;;;;;;;;;5067146;28;20050;-65
2024/01/26 13:30:05;;;;;;;;;;;;;;;;;;5068036;28;20019;-65
2024/01/26 13:32:31;;;;;;;;;;;;;;;;;;5069469;28;20376;-65
2024/01/26 13:34:57;;;;;;;;;;;;;;;;;;5065143;28;19928;-66
2024/01/26 13:37:23;;;;;;;;;;;;;;;;;;5071942;28;20647;-65
2024/01/26 13:39:49;;;;;;;;;;;;;;;;;;5076869;28;19931;-66
2024/01/26 13:42:15;;;;;;;;;;;;;;;;;;5075367;28;20060;-66
2024/01/26 13:44:43;;;;;;;;;;;;;;;;;;5076259;28;19920;-66
2024/01/26 13:47:09;;;;;;;;;;;;;;;;;;5083544;28;19926;-66
2024/01/26 13:49:35;;;;;;;;;;;;;;;;;;5076150;28;19924;-66
2024/01/26 13:52:00;;;;;;;;;;;;;;;;;;5057495;28;19925;-67
2024/01/26 13:54:26;;;;;;;;;;;;;;;;;;5071971;28;19942;-67
2024/01/26 13:56:56;;;;;;;;;;;;;;;;;;5077405;28;20361;-67
2024/01/26 13:59:22;;;;;;;;;;;;;;;;;;5082621;28;19946;-66
2024/01/26 14:01:48;;;;;;;;;;;;;;;;;;5072885;28;20028;-66
2024/01/26 14:04:14;;;;;;;;;;;;;;;;;;5061234;28;19962;-67
2024/01/26 14:06:40;;;;;;;;;;;;;;;;;;5051738;28;19921;-67
2024/01/26 14:09:06;;;;;;;;;;;;;;;;;;5059345;28;20362;-68
2024/01/26 14:11:36;;;;;;;;;;;;;;;;;;5071890;28;19925;-67
2024/01/26 14:14:04;;;;;;;;;;;;;;;;;;5070521;28;20046;-67
2024/01/26 14:16:30;;;;;;;;;;;;;;;;;;5103955;28;19924;-66
2024/01/26 14:18:56;;;;;;;;;;;;;;;;;;5077099;28;20011;-67
2024/01/26 14:21:22;;;;;;;;;;;;;;;;;;5057774;28;20587;-69
2024/01/26 14:23:48;;;;;;;;;;;;;;;;;;5069821;28;19920;-68
2024/01/26 14:26:14;;;;;;;;;;;;;;;;;;5095902;22;21070;-65
2024/01/26 14:28:40;;;;;;;;;;;;;;;;;;5085449;28;19928;-66
2024/01/26 14:31:06;;;;;;;;;;;;;;;;;;5090218;28;19920;-67
2024/01/26 14:33:32;;;;;;;;;;;;;;;;;;5058349;28;19928;-66
2024/01/26 14:35:58;;;;;;;;;;;;;;;;;;5080063;28;19958;-67
2024/01/26 14:38:24;;;;;;;;;;;;;;;;;;5086578;28;19931;-66
2024/01/26 14:40:51;;;;;;;;;;;;;;;;;;5085835;28;19920;-66
2024/01/26 14:43:17;;;;;;;;;;;;;;;;;;5080311;28;20276;-66
2024/01/26 14:45:43;;;;;;;;;;;;;;;;;;5090715;28;19920;-67
2024/01/26 14:48:11;;;;;;;;;;;;;;;;;;5089899;28;20715;-66
2024/01/26 14:50:37;;;;;;;;;;;;;;;;;;5077797;28;19925;-66
2024/01/26 14:53:03;;;;;;;;;;;;;;;;;;5083231;28;19930;-66
2024/01/26 14:55:29;;;;;;;;;;;;;;;;;;5062356;28;19926;-66
2024/01/26 14:57:55;;;;;;;;;;;;;;;;;;5084046;28;19946;-66
2024/01/26 15:00:22;;;;;;;;;;;;;;;;;;5082738;28;19974;-66
2024/01/26 15:02:48;;;;;;;;;;;;;;;;;;5090220;28;19924;-67
2024/01/26 15:05:15;;;;;;;;;;;;;;;;;;5081826;28;20365;-65
2024/01/26 15:07:42;;;;;;;;;;;;;;;;;;5085005;28;19951;-66
2024/01/26 15:10:08;;;;;;;;;;;;;;;;;;5087352;28;19980;-65
2024/01/26 15:12:34;;;;;;;;;;;;;;;;;;5085303;28;19932;-66
2024/01/26 15:15:00;;;;;;;;;;;;;;;;;;5085315;28;19928;-65
2024/01/26 15:17:26;;;;;;;;;;;;;;;;;;5087495;28;19962;-65
2024/01/26 15:19:52;;;;;;;;;;;;;;;;;;5090275;28;20341;-65
2024/01/26 15:22:18;;;;;;;;;;;;;;;;;;5065542;28;20015;-65
2024/01/26 15:24:44;;;;;;;;;;;;;;;;;;5086824;28;20011;-66
2024/01/26 15:27:10;;;;;;;;;;;;;;;;;;5082272;28;19928;-66
2024/01/26 15:29:36;;;;;;;;;;;;;;;;;;5078983;28;19977;-66
2024/01/26 15:32:02;;;;;;;;;;;;;;;;;;5084053;28;19924;-66
2024/01/26 15:34:28;;;;;;;;;;;;;;;;;;5085294;28;19924;-66
2024/01/26 15:36:56;;;;;;;;;;;;;;;;;;5080866;28;19924;-66
2024/01/26 15:39:22;;;;;;;;;;;;;;;;;;5073111;28;19924;-66
2024/01/26 15:41:47;;;;;;;;;;;;;;;;;;5085922;28;19928;-66
2024/01/26 15:44:13;;;;;;;;;;;;;;;;;;5087112;28;19924;-66
2024/01/26 15:46:39;;;;;;;;;;;;;;;;;;5084513;28;19928;-66
2024/01/26 15:49:05;;;;;;;;;;;;;;;;;;5085480;28;19932;-65
2024/01/26 15:51:31;;;;;;;;;;;;;;;;;;5083899;28;20011;-65
2024/01/26 15:53:58;;;;;;;;;;;;;;;;;;5088496;28;20015;-66
2024/01/26 15:56:24;;;;;;;;;;;;;;;;;;5086134;28;19932;-66
2024/01/26 15:58:50;;;;;;;;;;;;;;;;;;5086683;28;19993;-66
2024/01/26 16:01:16;;;;;;;;;;;;;;;;;;5083735;28;19964;-66
2024/01/26 16:03:42;;;;;;;;;;;;;;;;;;5088582;28;20400;-64
2024/01/26 16:06:08;;;;;;;;;;;;;;;;;;5083035;28;19963;-65
2024/01/26 16:08:34;;;;;;;;;;;;;;;;;;5069251;28;19963;-65
2024/01/26 16:11:00;;;;;;;;;;;;;;;;;;5082773;28;20038;-66
2024/01/26 16:13:26;;;;;;;;;;;;;;;;;;5085956;28;19931;-65
2024/01/26 16:15:52;;;;;;;;;;;;;;;;;;5087136;28;19924;-65
2024/01/26 16:18:18;;;;;;;;;;;;;;;;;;5087996;28;19924;-65
2024/01/26 16:20:44;;;;;;;;;;;;;;;;;;5089354;28;19971;-65
2024/01/26 16:23:10;;;;;;;;;;;;;;;;;;5086279;28;19964;-65
2024/01/26 16:25:36;;;;;;;;;;;;;;;;;;5089358;28;19934;-65
2024/01/26 16:28:02;;;;;;;;;;;;;;;;;;5081420;28;20578;-65
2024/01/26 16:30:28;;;;;;;;;;;;;;;;;;5087105;28;20365;-65
2024/01/26 16:32:53;;;;;;;;;;;;;;;;;;5083486;28;19931;-65
2024/01/26 16:35:19;;;;;;;;;;;;;;;;;;5085794;28;19927;-65
2024/01/26 16:37:46;;;;;;;;;;;;;;;;;;5088146;28;19928;-65